Main page
METAR-TAF:

METAR-TAF

Airports :

Madison County Executive Airport

Huntsville, Alabama, United States

latitude: 34-51-41N, longitude: 086-33-26W, elevation: 754 ft

Current weather observation

The report was made 21 minutes ago, at 11:35 UTC
Calm wind
Temperature 36°F
Humidity 80%
Pressure 30.26 in. Hg
Visibility: 10 miles
Scattered clouds at a height of 11000 ft

METAR: KMDQ 231135Z AUTO 00000KT 10SM SCT110 02/M01 A3026 RMK A02 T00221008

Time: 05:56 (11:56 UTC)


TAF: missing

Weather observations and forecasts of more than 4000 airports (METAR and TAF reports).

The available stations are represented by yellow and red dots on the map.

Hover mouse over dot to see the name of the station.

Then click to see weather observations and forecasts.

To change the map : click on the green buttons with a black cross to zoom in, on the green button with a dash to zoom out, or on the green arrows for adjacent maps.


METAR-TAF: